createdAt,value
2023-12-09T00:00:24.444Z,2.01
2023-12-09T00:02:50.909Z,2.27
2023-12-09T00:05:17.355Z,2.38
2023-12-09T00:07:43.769Z,2.03
2023-12-09T00:10:10.452Z,2.38
2023-12-09T00:12:36.939Z,2.47
2023-12-09T00:15:05.439Z,2.36
2023-12-09T00:17:32.292Z,2.00
2023-12-09T00:20:00.355Z,2.45
2023-12-09T00:22:27.235Z,2.27
2023-12-09T00:24:53.893Z,2.15
2023-12-09T00:27:20.327Z,1.65
2023-12-09T00:29:46.864Z,2.40
2023-12-09T00:32:13.359Z,2.31
2023-12-09T00:34:39.790Z,2.42
2023-12-09T00:37:06.166Z,2.19
2023-12-09T00:39:32.609Z,2.56
2023-12-09T00:41:59.110Z,2.19
2023-12-09T00:44:25.487Z,1.48
2023-12-09T00:46:52.177Z,2.09
2023-12-09T00:49:19.292Z,2.52
2023-12-09T00:51:45.721Z,2.47
2023-12-09T00:54:12.186Z,2.57
2023-12-09T00:56:38.565Z,2.36
2023-12-09T00:59:06.974Z,2.21
2023-12-09T01:01:34.828Z,2.36
2023-12-09T01:04:02.208Z,2.65
2023-12-09T01:06:29.969Z,2.58
2023-12-09T01:08:56.918Z,2.63
2023-12-09T01:11:24.855Z,2.38
2023-12-09T01:13:51.318Z,1.85
2023-12-09T01:16:17.718Z,2.69
2023-12-09T01:18:44.188Z,2.69
2023-12-09T01:21:10.735Z,2.35
2023-12-09T01:23:37.335Z,2.59
2023-12-09T01:26:03.932Z,2.57
2023-12-09T01:28:30.315Z,2.23
2023-12-09T01:30:56.689Z,2.70
2023-12-09T01:33:23.247Z,2.61
2023-12-09T01:35:49.672Z,2.44
2023-12-09T01:38:16.104Z,2.32
2023-12-09T01:40:42.482Z,2.43
2023-12-09T01:43:10.675Z,2.48
2023-12-09T01:45:37.159Z,1.84
2023-12-09T01:48:05.423Z,2.41
2023-12-09T01:50:32.148Z,2.62
2023-12-09T01:52:59.078Z,2.81
2023-12-09T01:55:25.602Z,2.39
2023-12-09T01:57:53.571Z,2.49
2023-12-09T02:00:22.252Z,2.50
2023-12-09T02:02:49.194Z,2.72
2023-12-09T02:05:15.894Z,2.82
2023-12-09T02:07:42.294Z,2.93
2023-12-09T02:10:08.911Z,2.90
2023-12-09T02:13:06.159Z,2.86
2023-12-09T02:15:41.286Z,2.76
2023-12-09T02:18:08.923Z,2.91
2023-12-09T02:20:35.841Z,2.10
2023-12-09T02:23:12.930Z,2.48
2023-12-09T02:25:40.791Z,2.42
2023-12-09T02:28:14.791Z,2.21
2023-12-09T02:30:51.221Z,3.01
2023-12-09T02:33:19.673Z,2.82
2023-12-09T02:35:48.634Z,2.75
2023-12-09T02:38:17.436Z,2.74
2023-12-09T02:40:45.748Z,2.52
2023-12-09T02:43:13.370Z,3.02
2023-12-09T02:45:40.060Z,2.90
2023-12-09T02:48:07.016Z,2.66
2023-12-09T02:50:34.135Z,3.05
2023-12-09T02:53:00.572Z,2.19
2023-12-09T02:55:26.984Z,2.94
2023-12-09T02:57:53.357Z,3.04
2023-12-09T03:00:19.942Z,3.13
2023-12-09T03:02:46.446Z,2.71
2023-12-09T03:05:12.958Z,2.97
2023-12-09T03:07:39.457Z,3.05
2023-12-09T03:10:06.236Z,2.71
2023-12-09T03:12:32.749Z,3.03
2023-12-09T03:14:59.172Z,3.17
2023-12-09T03:17:25.695Z,3.08
2023-12-09T03:19:52.104Z,3.00
2023-12-09T03:22:18.639Z,3.19
2023-12-09T03:24:45.062Z,3.17
2023-12-09T03:27:11.568Z,3.26
2023-12-09T03:29:37.981Z,3.10
2023-12-09T03:32:04.802Z,3.21
2023-12-09T03:34:31.390Z,3.07
2023-12-09T03:36:57.864Z,3.03
2023-12-09T03:39:24.493Z,3.05
2023-12-09T03:41:51.096Z,3.02
2023-12-09T03:44:17.759Z,3.30
2023-12-09T03:46:44.179Z,3.27
2023-12-09T03:49:10.798Z,2.90
2023-12-09T03:51:37.312Z,3.24
2023-12-09T03:54:03.937Z,3.16
2023-12-09T03:56:30.494Z,3.48
2023-12-09T03:58:56.858Z,3.12
2023-12-09T04:01:25.680Z,3.43
2023-12-09T04:03:52.636Z,3.46
2023-12-09T04:06:19.290Z,3.31
2023-12-09T04:08:45.804Z,3.31
2023-12-09T04:11:12.136Z,3.43
2023-12-09T04:13:38.513Z,3.50
2023-12-09T04:16:07.038Z,3.41
2023-12-09T04:18:33.612Z,3.34
2023-12-09T04:21:00.071Z,3.63
2023-12-09T04:23:26.583Z,3.55
2023-12-09T04:25:52.994Z,3.55
2023-12-09T04:28:19.411Z,2.85
2023-12-09T04:30:45.936Z,3.62
2023-12-09T04:33:12.376Z,3.59
2023-12-09T04:35:38.857Z,3.68
2023-12-09T04:38:05.978Z,3.67
2023-12-09T04:40:32.337Z,3.63
2023-12-09T04:42:58.729Z,3.49
2023-12-09T04:45:25.135Z,3.62
2023-12-09T04:47:52.207Z,3.48
2023-12-09T04:50:18.840Z,3.60
2023-12-09T04:52:45.252Z,3.67
2023-12-09T04:55:11.651Z,3.57
2023-12-09T04:57:38.622Z,3.71
2023-12-09T05:00:06.825Z,3.72
2023-12-09T05:02:33.444Z,3.69
2023-12-09T05:04:59.814Z,3.50
2023-12-09T05:07:27.377Z,3.66
2023-12-09T05:09:54.122Z,3.52
2023-12-09T05:12:20.915Z,3.67
2023-12-09T05:14:47.508Z,3.64
2023-12-09T05:17:14.005Z,3.77
2023-12-09T05:19:40.430Z,3.75
2023-12-09T05:22:07.515Z,3.79
2023-12-09T05:24:34.018Z,3.70
2023-12-09T05:27:00.502Z,3.44
2023-12-09T05:29:26.961Z,3.79
2023-12-09T05:31:53.333Z,3.78
2023-12-09T05:34:19.799Z,3.87
2023-12-09T05:36:46.190Z,3.87
2023-12-09T05:39:12.531Z,3.93
2023-12-09T05:41:42.689Z,3.87
2023-12-09T05:44:09.146Z,3.93
2023-12-09T05:46:37.414Z,3.99
2023-12-09T05:49:04.025Z,3.93
2023-12-09T05:51:30.767Z,4.01
2023-12-09T05:53:57.237Z,3.87
2023-12-09T05:56:23.686Z,4.01
2023-12-09T05:58:50.196Z,3.95
2023-12-09T06:01:16.730Z,3.79
2023-12-09T06:03:43.160Z,3.82
2023-12-09T06:06:11.144Z,3.89
2023-12-09T06:08:37.628Z,4.02
2023-12-09T06:11:04.239Z,4.07
2023-12-09T06:13:32.233Z,4.02
2023-12-09T06:15:58.647Z,3.97
2023-12-09T06:18:26.229Z,3.94
2023-12-09T06:20:52.700Z,3.96
2023-12-09T06:23:19.062Z,4.05
2023-12-09T06:25:45.584Z,3.96
2023-12-09T06:28:11.984Z,4.04
2023-12-09T06:30:38.572Z,3.79
2023-12-09T06:33:05.223Z,4.07
2023-12-09T06:35:31.787Z,3.88
2023-12-09T06:37:58.581Z,4.02
2023-12-09T06:40:24.997Z,4.09
2023-12-09T06:42:51.728Z,3.94
2023-12-09T06:45:18.427Z,4.05
2023-12-09T06:47:44.966Z,3.81
2023-12-09T06:50:12.224Z,4.10
2023-12-09T06:52:38.708Z,4.01
2023-12-09T06:55:05.490Z,4.13
2023-12-09T06:57:31.989Z,4.10
2023-12-09T06:59:58.420Z,4.08
2023-12-09T07:02:25.036Z,4.00
2023-12-09T07:04:51.795Z,4.21
2023-12-09T07:07:21.993Z,4.02
2023-12-09T07:09:49.038Z,4.09
2023-12-09T07:12:15.532Z,4.06
2023-12-09T07:14:41.999Z,4.08
2023-12-09T07:17:08.337Z,4.17
2023-12-09T07:19:35.031Z,4.13
2023-12-09T07:22:04.464Z,4.06
2023-12-09T07:24:31.441Z,4.02
2023-12-09T07:26:57.963Z,4.14
2023-12-09T07:29:26.518Z,4.17
2023-12-09T07:31:53.863Z,4.09
2023-12-09T07:34:21.508Z,4.00
2023-12-09T07:36:48.103Z,4.18
2023-12-09T07:39:14.605Z,4.24
2023-12-09T07:41:42.741Z,4.15
2023-12-09T07:44:09.223Z,4.24
2023-12-09T07:46:35.649Z,4.16
2023-12-09T07:49:02.080Z,3.96
2023-12-09T07:51:28.974Z,4.22
2023-12-09T07:53:55.495Z,4.32
2023-12-09T07:56:21.900Z,4.19
2023-12-09T07:58:48.357Z,4.30
2023-12-09T08:01:14.854Z,4.26
2023-12-09T08:03:41.705Z,4.30
2023-12-09T08:06:08.804Z,4.15
2023-12-09T08:08:36.134Z,4.12
2023-12-09T08:11:04.083Z,4.36
2023-12-09T08:13:30.810Z,4.31
2023-12-09T08:15:57.159Z,4.19
2023-12-09T08:18:23.945Z,4.34
2023-12-09T08:20:50.492Z,4.15
2023-12-09T08:23:16.931Z,4.15
2023-12-09T08:25:44.680Z,4.24
2023-12-09T08:28:11.825Z,4.37
2023-12-09T08:30:40.258Z,4.22
2023-12-09T08:33:06.856Z,4.22
2023-12-09T08:35:33.591Z,4.34
2023-12-09T08:38:00.136Z,4.37
2023-12-09T08:40:26.641Z,4.13
2023-12-09T08:42:52.989Z,4.37
2023-12-09T08:45:19.538Z,4.52
2023-12-09T08:47:46.357Z,4.50
2023-12-09T08:50:22.032Z,4.52
2023-12-09T08:52:52.237Z,4.55
2023-12-09T08:55:18.968Z,4.42
2023-12-09T08:57:46.317Z,4.35
2023-12-09T09:00:15.152Z,4.46
2023-12-09T09:02:41.770Z,4.61
2023-12-09T09:05:08.702Z,4.55
2023-12-09T09:07:39.819Z,4.55
2023-12-09T09:10:09.448Z,4.60
2023-12-09T09:12:35.874Z,4.49
2023-12-09T09:15:06.014Z,4.16
2023-12-09T09:17:36.091Z,4.63
2023-12-09T09:20:04.479Z,4.68
2023-12-09T09:22:30.927Z,4.45
2023-12-09T09:24:59.177Z,4.68
2023-12-09T09:27:26.616Z,4.54
2023-12-09T09:29:54.027Z,4.62
2023-12-09T09:32:20.515Z,4.66
2023-12-09T09:34:47.007Z,4.79
2023-12-09T09:37:13.440Z,4.63
2023-12-09T09:39:39.850Z,4.68
2023-12-09T09:42:33.002Z,4.76
2023-12-09T09:45:15.584Z,4.67
2023-12-09T09:47:42.862Z,4.71
2023-12-09T09:50:10.241Z,4.78
2023-12-09T09:52:38.751Z,4.75
2023-12-09T09:55:07.587Z,4.73
2023-12-09T09:57:34.890Z,4.66
2023-12-09T10:00:01.924Z,4.89
2023-12-09T10:02:28.935Z,4.76
2023-12-09T10:04:55.524Z,4.62
2023-12-09T10:07:22.740Z,4.80
2023-12-09T10:09:50.089Z,4.64
2023-12-09T10:12:16.651Z,4.78
2023-12-09T10:14:43.924Z,4.86
2023-12-09T10:17:10.889Z,4.82
2023-12-09T10:19:37.718Z,4.83
2023-12-09T10:22:04.344Z,4.86
2023-12-09T10:24:30.689Z,4.98
2023-12-09T10:26:57.833Z,4.96
2023-12-09T10:29:25.749Z,4.95
2023-12-09T10:31:52.186Z,4.65
2023-12-09T10:34:19.456Z,4.91
2023-12-09T10:36:46.195Z,4.81
2023-12-09T10:39:12.723Z,4.82
2023-12-09T10:41:39.081Z,4.95
2023-12-09T10:44:05.717Z,4.96
2023-12-09T10:46:32.077Z,5.03
2023-12-09T10:48:58.861Z,4.98
2023-12-09T10:51:25.478Z,4.92
2023-12-09T10:53:51.897Z,5.04
2023-12-09T10:56:19.613Z,4.87
2023-12-09T10:58:47.717Z,4.73
2023-12-09T11:01:17.177Z,5.00
2023-12-09T11:03:43.697Z,4.97
2023-12-09T11:06:11.562Z,5.02
2023-12-09T11:08:39.596Z,5.05
2023-12-09T11:11:08.996Z,5.07
2023-12-09T11:13:36.044Z,5.02
2023-12-09T11:16:10.384Z,4.91
2023-12-09T11:18:37.130Z,4.99
2023-12-09T11:21:04.918Z,5.02
2023-12-09T11:23:31.714Z,5.02
2023-12-09T11:25:58.167Z,5.04
2023-12-09T11:28:25.663Z,5.07
2023-12-09T11:30:57.130Z,5.19
2023-12-09T11:33:25.205Z,5.14
2023-12-09T11:35:53.559Z,5.00
2023-12-09T11:38:20.921Z,5.14
2023-12-09T11:40:47.774Z,5.04
2023-12-09T11:43:15.213Z,5.18
2023-12-09T11:45:42.085Z,5.22
2023-12-09T11:48:10.155Z,5.25
2023-12-09T11:50:40.474Z,5.31
2023-12-09T11:53:06.934Z,5.26
2023-12-09T11:55:33.543Z,5.37
2023-12-09T11:58:00.015Z,5.22
2023-12-09T12:00:27.264Z,5.35
2023-12-09T12:02:53.717Z,5.31
2023-12-09T12:05:21.074Z,5.24
2023-12-09T12:07:47.597Z,5.33
2023-12-09T12:10:16.008Z,5.31
2023-12-09T12:12:43.584Z,5.12
2023-12-09T12:15:10.861Z,5.07
2023-12-09T12:17:39.261Z,5.12
2023-12-09T12:20:07.901Z,5.15
2023-12-09T12:22:34.764Z,5.14
2023-12-09T12:25:01.516Z,5.11
2023-12-09T12:27:27.917Z,4.98
2023-12-09T12:29:55.902Z,5.07
2023-12-09T12:32:22.332Z,5.03
2023-12-09T12:34:48.805Z,4.95
2023-12-09T12:37:15.264Z,4.81
2023-12-09T12:39:42.208Z,4.76
2023-12-09T12:42:09.562Z,4.78
2023-12-09T12:44:36.400Z,4.80
2023-12-09T12:47:02.886Z,4.54
2023-12-09T12:49:36.302Z,4.82
2023-12-09T12:52:04.434Z,4.89
2023-12-09T12:54:30.818Z,4.76
2023-12-09T12:56:57.325Z,4.82
2023-12-09T12:59:23.763Z,4.63
2023-12-09T13:01:50.175Z,4.53
2023-12-09T13:04:17.670Z,4.81
2023-12-09T13:06:44.489Z,4.78
2023-12-09T13:09:12.318Z,4.67
2023-12-09T13:11:38.771Z,4.37
2023-12-09T13:14:06.058Z,4.63
2023-12-09T13:16:32.621Z,4.64
2023-12-09T13:18:59.095Z,4.57
2023-12-09T13:21:26.115Z,4.55
2023-12-09T13:23:52.811Z,4.51
2023-12-09T13:26:19.269Z,4.60
2023-12-09T13:28:45.740Z,4.65
2023-12-09T13:31:12.127Z,4.54
2023-12-09T13:33:38.730Z,4.57
2023-12-09T13:36:05.861Z,4.62
2023-12-09T13:38:32.354Z,4.58
2023-12-09T13:40:59.922Z,4.60
2023-12-09T13:43:26.719Z,4.57
2023-12-09T13:45:53.174Z,4.59
2023-12-09T13:48:19.882Z,4.40
2023-12-09T13:50:46.549Z,4.51
2023-12-09T13:53:13.319Z,4.20
2023-12-09T13:55:40.455Z,4.48
2023-12-09T13:58:07.777Z,4.23
2023-12-09T14:00:34.587Z,4.41
2023-12-09T14:03:01.211Z,4.35
2023-12-09T14:05:28.114Z,4.44
2023-12-09T14:07:55.260Z,4.51
2023-12-09T14:10:21.686Z,4.44
2023-12-09T14:12:48.988Z,4.49
2023-12-09T14:15:15.620Z,4.48
2023-12-09T14:17:43.403Z,4.32
2023-12-09T14:20:12.948Z,4.50
2023-12-09T14:22:39.754Z,4.16
2023-12-09T14:25:06.451Z,4.31
2023-12-09T14:27:33.105Z,4.24
2023-12-09T14:29:59.553Z,4.13
2023-12-09T14:32:26.221Z,4.11
2023-12-09T14:34:53.038Z,4.09
2023-12-09T14:37:19.610Z,4.30
2023-12-09T14:39:46.305Z,4.26
2023-12-09T14:42:12.714Z,3.81
2023-12-09T14:44:39.244Z,4.07
2023-12-09T14:47:05.859Z,3.44
2023-12-09T14:49:32.414Z,4.22
2023-12-09T14:51:58.915Z,4.19
2023-12-09T14:54:25.481Z,4.12
2023-12-09T14:56:52.694Z,4.31
2023-12-09T14:59:19.636Z,4.02
2023-12-09T15:01:46.098Z,4.14
2023-12-09T15:04:12.613Z,4.09
2023-12-09T15:06:39.354Z,4.30
2023-12-09T15:09:05.906Z,3.94
2023-12-09T15:11:32.332Z,4.14
2023-12-09T15:13:58.733Z,4.19
2023-12-09T15:16:25.254Z,4.12
2023-12-09T15:18:52.099Z,3.76
2023-12-09T15:21:18.624Z,4.12
2023-12-09T15:23:45.614Z,4.11
2023-12-09T15:26:12.380Z,4.14
2023-12-09T15:28:39.025Z,4.02
2023-12-09T15:31:05.499Z,4.25
2023-12-09T15:33:32.158Z,4.03
2023-12-09T15:35:58.885Z,4.21
2023-12-09T15:38:26.196Z,4.15
2023-12-09T15:40:52.673Z,4.19
2023-12-09T15:43:19.305Z,4.30
2023-12-09T15:45:45.829Z,4.33
2023-12-09T15:48:12.653Z,4.30
2023-12-09T15:50:39.458Z,4.37
2023-12-09T15:53:05.973Z,3.95
2023-12-09T15:55:33.642Z,4.31
2023-12-09T15:58:00.427Z,4.32
2023-12-09T16:00:27.103Z,4.23
2023-12-09T16:02:54.007Z,4.43
2023-12-09T16:05:20.755Z,4.44
2023-12-09T16:07:47.598Z,3.90
2023-12-09T16:10:14.086Z,3.80
2023-12-09T16:12:40.949Z,4.20
2023-12-09T16:15:08.183Z,3.85
2023-12-09T16:17:36.091Z,4.14
2023-12-09T16:20:05.481Z,4.06
2023-12-09T16:22:31.982Z,4.26
2023-12-09T16:24:58.571Z,4.27
2023-12-09T16:27:25.076Z,4.15
2023-12-09T16:29:52.609Z,3.19
2023-12-09T16:32:19.313Z,4.10
2023-12-09T16:34:45.807Z,3.68
2023-12-09T16:37:12.930Z,3.25
2023-12-09T16:39:39.840Z,3.39
2023-12-09T16:42:06.417Z,4.31
2023-12-09T16:44:32.946Z,4.17
2023-12-09T16:46:59.664Z,4.10
2023-12-09T16:49:26.218Z,3.99
2023-12-09T16:51:52.869Z,3.83
2023-12-09T16:54:19.352Z,3.82
2023-12-09T16:56:45.944Z,4.01
2023-12-09T16:59:12.417Z,4.19
2023-12-09T17:01:39.466Z,4.28
2023-12-09T17:04:06.680Z,4.07
2023-12-09T17:06:33.941Z,4.25
2023-12-09T17:09:01.253Z,3.97
2023-12-09T17:11:28.176Z,3.82
2023-12-09T17:13:54.657Z,3.85
2023-12-09T17:16:21.186Z,3.87
2023-12-09T17:18:47.739Z,4.08
2023-12-09T17:21:14.685Z,4.23
2023-12-09T17:23:41.960Z,4.07
2023-12-09T17:26:08.706Z,3.96
2023-12-09T17:28:35.361Z,4.31
2023-12-09T17:31:02.222Z,4.39
2023-12-09T17:33:28.892Z,4.44
2023-12-09T17:35:55.499Z,4.20
2023-12-09T17:38:22.020Z,4.35
2023-12-09T17:40:48.418Z,4.30
2023-12-09T17:43:14.889Z,4.23
2023-12-09T17:45:41.559Z,4.20
2023-12-09T17:48:08.230Z,4.44
2023-12-09T17:50:34.992Z,3.81
2023-12-09T17:53:01.356Z,4.45
2023-12-09T17:55:27.954Z,4.59
2023-12-09T17:57:56.805Z,4.47
2023-12-09T18:00:23.594Z,4.35
2023-12-09T18:02:50.170Z,4.20
2023-12-09T18:05:16.725Z,3.48
2023-12-09T18:07:43.352Z,4.29
2023-12-09T18:10:09.987Z,4.18
2023-12-09T18:12:36.382Z,4.25
2023-12-09T18:15:02.925Z,4.50
2023-12-09T18:17:29.441Z,4.49
2023-12-09T18:19:56.965Z,4.10
2023-12-09T18:22:23.484Z,4.29
2023-12-09T18:24:50.129Z,4.47
2023-12-09T18:27:16.946Z,4.45
2023-12-09T18:29:43.905Z,4.06
2023-12-09T18:32:15.813Z,4.47
2023-12-09T18:34:43.179Z,3.79
2023-12-09T18:37:10.895Z,4.25
2023-12-09T18:39:37.327Z,4.27
2023-12-09T18:42:03.963Z,4.36
2023-12-09T18:44:30.457Z,4.38
2023-12-09T18:46:56.980Z,4.16
2023-12-09T18:49:23.537Z,4.14
2023-12-09T18:51:50.159Z,3.40
2023-12-09T18:54:16.736Z,3.63
2023-12-09T18:56:43.235Z,4.40
2023-12-09T18:59:09.640Z,3.78
2023-12-09T19:01:36.199Z,4.57
2023-12-09T19:04:03.355Z,4.37
2023-12-09T19:06:32.708Z,4.47
2023-12-09T19:09:03.730Z,4.51
2023-12-09T19:11:30.294Z,4.09
2023-12-09T19:13:56.702Z,3.98
2023-12-09T19:16:23.177Z,3.98
2023-12-09T19:18:49.660Z,4.44
2023-12-09T19:21:16.211Z,4.38
2023-12-09T19:23:42.621Z,4.20
2023-12-09T19:26:09.122Z,4.29
2023-12-09T19:28:35.511Z,4.35
2023-12-09T19:31:01.942Z,4.22
2023-12-09T19:33:29.691Z,3.92
2023-12-09T19:35:56.388Z,4.32
2023-12-09T19:38:22.839Z,3.15
2023-12-09T19:40:49.397Z,3.93
2023-12-09T19:43:16.034Z,4.28
2023-12-09T19:45:42.489Z,4.01
2023-12-09T19:48:09.151Z,3.86
2023-12-09T19:50:35.696Z,4.01
2023-12-09T19:53:04.876Z,3.45
2023-12-09T19:55:31.400Z,4.32
2023-12-09T19:57:58.275Z,4.11
2023-12-09T20:00:24.723Z,4.30
2023-12-09T20:02:51.304Z,3.90
2023-12-09T20:05:19.186Z,4.09
2023-12-09T20:07:45.987Z,4.21
2023-12-09T20:10:12.416Z,3.56
2023-12-09T20:12:38.990Z,4.16
2023-12-09T20:15:07.462Z,4.20
2023-12-09T20:17:34.367Z,4.10
2023-12-09T20:20:01.404Z,4.08
2023-12-09T20:22:28.182Z,4.25
2023-12-09T20:24:57.026Z,3.42
2023-12-09T20:27:23.714Z,4.25
2023-12-09T20:29:55.174Z,4.44
2023-12-09T20:32:22.263Z,4.32
2023-12-09T20:34:49.563Z,3.51
2023-12-09T20:37:16.155Z,4.22
2023-12-09T20:39:42.670Z,3.92
2023-12-09T20:42:09.178Z,4.31
2023-12-09T20:44:35.628Z,4.24
2023-12-09T20:47:02.165Z,4.16
2023-12-09T20:49:28.707Z,4.36
2023-12-09T20:51:55.202Z,4.44
2023-12-09T20:54:21.705Z,4.46
2023-12-09T20:56:49.160Z,4.18
2023-12-09T20:59:16.171Z,4.06
2023-12-09T21:01:46.470Z,4.24
2023-12-09T21:04:14.014Z,4.12
2023-12-09T21:06:40.876Z,4.52
2023-12-09T21:09:08.252Z,4.24
2023-12-09T21:11:38.466Z,4.44
2023-12-09T21:14:08.052Z,4.38
2023-12-09T21:16:35.654Z,4.21
2023-12-09T21:19:03.342Z,4.40
2023-12-09T21:21:32.918Z,4.34
2023-12-09T21:23:59.463Z,4.39
2023-12-09T21:26:25.964Z,4.56
2023-12-09T21:28:52.409Z,4.02
2023-12-09T21:31:18.862Z,4.54
2023-12-09T21:33:45.542Z,4.26
2023-12-09T21:36:16.133Z,4.58
2023-12-09T21:38:43.964Z,4.59
2023-12-09T21:41:21.560Z,4.58
2023-12-09T21:43:51.316Z,4.31
2023-12-09T21:46:22.536Z,4.69
2023-12-09T21:48:49.949Z,4.36
2023-12-09T21:51:17.492Z,4.65
2023-12-09T21:53:44.076Z,4.61
2023-12-09T21:56:23.876Z,4.67
2023-12-09T21:58:50.947Z,4.60
2023-12-09T22:01:18.267Z,4.48
2023-12-09T22:03:45.010Z,4.63
2023-12-09T22:06:13.593Z,4.15
2023-12-09T22:08:41.252Z,4.47
2023-12-09T22:11:09.842Z,4.57
2023-12-09T22:13:36.388Z,4.35
2023-12-09T22:16:02.804Z,4.24
2023-12-09T22:18:29.601Z,4.18
2023-12-09T22:20:56.166Z,4.37
2023-12-09T22:23:22.581Z,4.55
2023-12-09T22:25:48.964Z,4.53
2023-12-09T22:28:15.468Z,4.24
2023-12-09T22:30:41.909Z,4.44
2023-12-09T22:33:08.471Z,4.62
2023-12-09T22:35:35.259Z,4.80
2023-12-09T22:38:01.725Z,4.46
2023-12-09T22:40:28.303Z,4.26
2023-12-09T22:42:54.863Z,4.78
2023-12-09T22:45:21.476Z,4.83
2023-12-09T22:47:48.224Z,4.43
2023-12-09T22:50:14.926Z,4.62
2023-12-09T22:52:41.414Z,4.74
2023-12-09T22:55:08.324Z,4.45
2023-12-09T22:57:34.790Z,4.74
2023-12-09T23:00:01.348Z,4.09
2023-12-09T23:02:28.039Z,4.60
2023-12-09T23:04:54.890Z,4.57
2023-12-09T23:07:21.315Z,4.60
2023-12-09T23:09:47.814Z,4.60
2023-12-09T23:12:14.501Z,4.65
2023-12-09T23:14:40.950Z,4.76
2023-12-09T23:17:07.404Z,4.01
2023-12-09T23:19:34.042Z,4.31
2023-12-09T23:22:00.528Z,4.74
2023-12-09T23:24:27.021Z,4.78
2023-12-09T23:26:54.800Z,4.68
2023-12-09T23:29:21.382Z,4.17
2023-12-09T23:31:47.852Z,4.49
2023-12-09T23:34:16.544Z,4.70
2023-12-09T23:36:43.097Z,4.53
2023-12-09T23:39:09.628Z,4.60
2023-12-09T23:41:36.138Z,4.71
2023-12-09T23:44:02.575Z,4.89
2023-12-09T23:46:29.062Z,4.58
2023-12-09T23:48:57.073Z,4.64
2023-12-09T23:51:24.250Z,4.78
2023-12-09T23:53:50.689Z,4.68
2023-12-09T23:56:24.643Z,4.73
2023-12-09T23:58:51.099Z,4.73
